EIN205 EIDW-EGCC
Flight info
| Callsign | EIN205 |
|---|---|
| Flight time | 0h 36m |
| Altitude | 24000 |
| Route | BOFUM1E BOFUM Q37 MALUD |
| Aircraft | A321/M-SDE3FGHIRWY/LB1 |
Departure
| Time | 2026-05-04 15:57 |
|---|---|
| Airport | Dublin Airport (EIDW) |
Arrival
| Time | 2026-05-04 16:34 |
|---|---|
| Airport | Manchester Airport (EGCC) |
| Time | Latitude | Longitude | Altitude | Speed | Heading |
|---|---|---|---|---|---|
| 2026-05-04 15:16 | 53.42784 | -6.24905 | 211 ft | 0 kts | 71° |
| 2026-05-04 15:44 | 53.42783 | -6.24907 | 211 ft | 2 kts | 71° |
| 2026-05-04 15:44 | 53.42776 | -6.24948 | 211 ft | 4 kts | 78° |
| 2026-05-04 15:44 | 53.42772 | -6.24993 | 211 ft | 4 kts | 91° |
| 2026-05-04 15:45 | 53.42776 | -6.25035 | 211 ft | 4 kts | 125° |
| 2026-05-04 15:45 | 53.42785 | -6.25050 | 211 ft | 0 kts | 153° |
| 2026-05-04 15:51 | 53.42784 | -6.25050 | 211 ft | 0 kts | 162° |
| 2026-05-04 15:51 | 53.42769 | -6.25056 | 216 ft | 6 kts | 206° |
| 2026-05-04 15:51 | 53.42727 | -6.25171 | 213 ft | 18 kts | 229° |
| 2026-05-04 15:52 | 53.42628 | -6.25344 | 219 ft | 21 kts | 225° |
| 2026-05-04 15:52 | 53.42523 | -6.25521 | 211 ft | 21 kts | 226° |
| 2026-05-04 15:52 | 53.42422 | -6.25694 | 213 ft | 21 kts | 225° |
| 2026-05-04 15:52 | 53.42321 | -6.25866 | 217 ft | 21 kts | 225° |
| 2026-05-04 15:53 | 53.42258 | -6.26069 | 211 ft | 19 kts | 261° |
| 2026-05-04 15:53 | 53.42268 | -6.26288 | 211 ft | 19 kts | 274° |
| 2026-05-04 15:53 | 53.42278 | -6.26505 | 217 ft | 19 kts | 274° |
| 2026-05-04 15:53 | 53.42289 | -6.26722 | 211 ft | 21 kts | 275° |
| 2026-05-04 15:54 | 53.42306 | -6.27009 | 213 ft | 29 kts | 275° |
| 2026-05-04 15:54 | 53.42327 | -6.27391 | 213 ft | 37 kts | 276° |
| 2026-05-04 15:54 | 53.42352 | -6.27811 | 219 ft | 21 kts | 275° |
| 2026-05-04 15:54 | 53.42363 | -6.28070 | 211 ft | 23 kts | 275° |
| 2026-05-04 15:55 | 53.42380 | -6.28355 | 217 ft | 26 kts | 276° |
| 2026-05-04 15:55 | 53.42397 | -6.28669 | 211 ft | 28 kts | 275° |
| 2026-05-04 15:55 | 53.42411 | -6.28932 | 211 ft | 15 kts | 270° |
| 2026-05-04 15:55 | 53.42371 | -6.29059 | 213 ft | 10 kts | 212° |
| 2026-05-04 15:56 | 53.42292 | -6.29068 | 210 ft | 15 kts | 173° |
| 2026-05-04 15:56 | 53.42232 | -6.28900 | 217 ft | 8 kts | 98° |
| 2026-05-04 15:56 | 53.42232 | -6.28860 | 210 ft | 0 kts | 92° |
| 2026-05-04 15:56 | 53.42223 | -6.28645 | 216 ft | 64 kts | 94° |
| 2026-05-04 15:57 | 53.42153 | -6.27347 | 216 ft | 155 kts | 96° |
| 2026-05-04 15:57 | 53.42023 | -6.25318 | 685 ft | 192 kts | 98° |
| 2026-05-04 15:57 | 53.41827 | -6.22908 | 1239 ft | 221 kts | 99° |
| 2026-05-04 15:57 | 53.41586 | -6.20254 | 1771 ft | 240 kts | 99° |
| 2026-05-04 15:58 | 53.41327 | -6.17441 | 2556 ft | 248 kts | 98° |
| 2026-05-04 15:58 | 53.41067 | -6.14545 | 3422 ft | 254 kts | 98° |
| 2026-05-04 15:58 | 53.40796 | -6.11598 | 4325 ft | 258 kts | 97° |
| 2026-05-04 15:58 | 53.40528 | -6.08596 | 5208 ft | 261 kts | 95° |
| 2026-05-04 15:59 | 53.40464 | -6.05594 | 6243 ft | 257 kts | 85° |
| 2026-05-04 15:59 | 53.40784 | -6.02555 | 6832 ft | 271 kts | 71° |
| 2026-05-04 15:59 | 53.41476 | -5.99576 | 7573 ft | 278 kts | 64° |
| 2026-05-04 15:59 | 53.42300 | -5.96610 | 8333 ft | 284 kts | 64° |
| 2026-05-04 16:00 | 53.43141 | -5.93615 | 8878 ft | 291 kts | 64° |
| 2026-05-04 16:00 | 53.43981 | -5.90472 | 9043 ft | 292 kts | 66° |
| 2026-05-04 16:00 | 53.44757 | -5.87384 | 9077 ft | 292 kts | 67° |
| 2026-05-04 16:00 | 53.45514 | -5.84231 | 9081 ft | 291 kts | 68° |
| 2026-05-04 16:01 | 53.46250 | -5.81079 | 9278 ft | 290 kts | 68° |
| 2026-05-04 16:01 | 53.47000 | -5.77919 | 9655 ft | 293 kts | 67° |
| 2026-05-04 16:01 | 53.47766 | -5.74748 | 10039 ft | 294 kts | 67° |
| 2026-05-04 16:01 | 53.48549 | -5.71520 | 10443 ft | 305 kts | 67° |
| 2026-05-04 16:02 | 53.49374 | -5.68124 | 10825 ft | 322 kts | 67° |
| 2026-05-04 16:02 | 53.50239 | -5.64552 | 11200 ft | 338 kts | 67° |
| 2026-05-04 16:02 | 53.52026 | -5.57116 | 11960 ft | 346 kts | 67° |
| 2026-05-04 16:03 | 53.52918 | -5.53352 | 12336 ft | 348 kts | 70° |
| 2026-05-04 16:03 | 53.53507 | -5.49387 | 12860 ft | 352 kts | 82° |
| 2026-05-04 16:03 | 53.53614 | -5.45224 | 13404 ft | 361 kts | 92° |
| 2026-05-04 16:03 | 53.53506 | -5.41004 | 14076 ft | 363 kts | 92° |
| 2026-05-04 16:04 | 53.53401 | -5.36757 | 14787 ft | 365 kts | 91° |
| 2026-05-04 16:04 | 53.53189 | -5.28220 | 16194 ft | 366 kts | 92° |
| 2026-05-04 16:04 | 53.53081 | -5.23943 | 16898 ft | 366 kts | 91° |
| 2026-05-04 16:05 | 53.52971 | -5.19672 | 17597 ft | 366 kts | 91° |
| 2026-05-04 16:05 | 53.52859 | -5.15395 | 18300 ft | 366 kts | 92° |
| 2026-05-04 16:05 | 53.52608 | -5.06886 | 19702 ft | 363 kts | 92° |
| 2026-05-04 16:06 | 53.52474 | -5.02666 | 20402 ft | 361 kts | 92° |
| 2026-05-04 16:06 | 53.52103 | -4.91383 | 21788 ft | 371 kts | 92° |
| 2026-05-04 16:07 | 53.51906 | -4.85520 | 21958 ft | 388 kts | 92° |
| 2026-05-04 16:07 | 53.51442 | -4.71540 | 22783 ft | 407 kts | 92° |
| 2026-05-04 16:08 | 53.51282 | -4.66748 | 23036 ft | 409 kts | 92° |
| 2026-05-04 16:08 | 53.50790 | -4.52409 | 23081 ft | 411 kts | 92° |
| 2026-05-04 16:09 | 53.50446 | -4.42854 | 22709 ft | 407 kts | 92° |
| 2026-05-04 16:09 | 53.50094 | -4.33412 | 22158 ft | 404 kts | 93° |
| 2026-05-04 16:10 | 53.49742 | -4.24016 | 21614 ft | 402 kts | 93° |
| 2026-05-04 16:11 | 53.49195 | -4.10042 | 20778 ft | 398 kts | 93° |
| 2026-05-04 16:11 | 53.49010 | -4.05405 | 20502 ft | 397 kts | 93° |
| 2026-05-04 16:12 | 53.47758 | -3.91782 | 19678 ft | 395 kts | 109° |
| 2026-05-04 16:12 | 53.44961 | -3.78853 | 18549 ft | 389 kts | 110° |
| 2026-05-04 16:13 | 53.43123 | -3.70347 | 17804 ft | 386 kts | 110° |
| 2026-05-04 16:13 | 53.41420 | -3.61869 | 17000 ft | 382 kts | 103° |
| 2026-05-04 16:14 | 53.41048 | -3.54575 | 16249 ft | 377 kts | 92° |
| 2026-05-04 16:14 | 53.40767 | -3.45832 | 15399 ft | 374 kts | 94° |
| 2026-05-04 16:15 | 53.40226 | -3.32892 | 14122 ft | 367 kts | 94° |
| 2026-05-04 16:16 | 53.39865 | -3.24525 | 13270 ft | 353 kts | 94° |
| 2026-05-04 16:16 | 53.40481 | -3.12478 | 12004 ft | 356 kts | 70° |
| 2026-05-04 16:17 | 53.42132 | -3.04671 | 11157 ft | 353 kts | 70° |
| 2026-05-04 16:18 | 53.44577 | -2.93225 | 9881 ft | 338 kts | 67° |
| 2026-05-04 16:18 | 53.45625 | -2.89752 | 9467 ft | 330 kts | 60° |
| 2026-05-04 16:19 | 53.48890 | -2.79960 | 8204 ft | 313 kts | 60° |
| 2026-05-04 16:19 | 53.50908 | -2.73908 | 8077 ft | 279 kts | 60° |
| 2026-05-04 16:20 | 53.53507 | -2.66090 | 7932 ft | 244 kts | 60° |
| 2026-05-04 16:20 | 53.55137 | -2.61165 | 7341 ft | 239 kts | 60° |
| 2026-05-04 16:21 | 53.57537 | -2.53898 | 6435 ft | 235 kts | 60° |
| 2026-05-04 16:22 | 53.59109 | -2.49144 | 6074 ft | 231 kts | 62° |
| 2026-05-04 16:22 | 53.59627 | -2.41031 | 6074 ft | 245 kts | 90° |
| 2026-05-04 16:23 | 53.59611 | -2.32433 | 6066 ft | 245 kts | 90° |
| 2026-05-04 16:24 | 53.59572 | -2.20938 | 6055 ft | 246 kts | 90° |
| 2026-05-04 16:25 | 53.59553 | -2.15214 | 6052 ft | 244 kts | 90° |
| 2026-05-04 16:26 | 53.59513 | -2.03743 | 5513 ft | 244 kts | 91° |
| 2026-05-04 16:26 | 53.59200 | -1.95355 | 4767 ft | 234 kts | 117° |
| 2026-05-04 16:27 | 53.56689 | -1.92722 | 4256 ft | 217 kts | 186° |
| 2026-05-04 16:28 | 53.52610 | -1.94733 | 4004 ft | 195 kts | 200° |
| 2026-05-04 16:28 | 53.48784 | -1.96944 | 4007 ft | 193 kts | 201° |
| 2026-05-04 16:29 | 53.46386 | -2.04350 | 3451 ft | 191 kts | 237° |
| 2026-05-04 16:30 | 53.43982 | -2.09596 | 2714 ft | 185 kts | 232° |
| 2026-05-04 16:31 | 53.42435 | -2.12823 | 2239 ft | 167 kts | 232° |
| 2026-05-04 16:31 | 53.40479 | -2.16896 | 1631 ft | 138 kts | 232° |
| 2026-05-04 16:32 | 53.38711 | -2.20569 | 1099 ft | 134 kts | 232° |
| 2026-05-04 16:33 | 53.37545 | -2.22989 | 799 ft | 134 kts | 232° |
| 2026-05-04 16:33 | 53.36385 | -2.25409 | 404 ft | 133 kts | 232° |
| 2026-05-04 16:34 | 53.35354 | -2.27545 | 258 ft | 62 kts | 231° |
| 2026-05-04 16:34 | 53.35261 | -2.27870 | 247 ft | 25 kts | 255° |
| 2026-05-04 16:35 | 53.35234 | -2.28123 | 237 ft | 0 kts | 262° |
| 2026-05-04 16:36 | 53.35233 | -2.28134 | 236 ft | 5 kts | 264° |
| 2026-05-04 16:37 | 53.35280 | -2.28178 | 237 ft | 2 kts | 9° |
| 2026-05-04 16:37 | 53.35288 | -2.28175 | 237 ft | 4 kts | 13° |
| 2026-05-04 16:37 | 53.35431 | -2.27964 | 244 ft | 24 kts | 39° |
| 2026-05-04 16:38 | 53.35822 | -2.27861 | 247 ft | 30 kts | 5° |
| 2026-05-04 16:39 | 53.36175 | -2.28144 | 247 ft | 17 kts | 353° |
| 2026-05-04 16:39 | 53.36374 | -2.27961 | 247 ft | 16 kts | 46° |
| 2026-05-04 16:40 | 53.36362 | -2.27745 | 248 ft | 6 kts | 65° |
| 2026-05-04 16:40 | 53.36388 | -2.27697 | 247 ft | 1 kts | 47° |
| 2026-05-04 16:41 | 53.36401 | -2.27675 | 248 ft | 4 kts | 46° |
| 2026-05-04 16:41 | 53.36410 | -2.27660 | 248 ft | 0 kts | 45° |